Time;durP1;ratioP1;P1;durP2;ratioP2;P2;SDS_P1;SDS_P2;PMS_P1;PMS_P2;Temp;Humidity;BMP_temperature;BMP_pressure;BME280_temperature;BME280_humidity;BME280_pressure;Samples;Min_cycle;Max_cycle;Signal;HPM_P1;HPM_P2
2023/01/13 00:02:26;;;;;;;21.90;4.20;;;16.00;85.80;;;;;;4193204;28;20056;-66
2023/01/13 00:05:08;;;;;;;20.77;5.18;;;16.00;85.90;;;;;;4193059;28;20518;-66
2023/01/13 00:07:49;;;;;;;17.20;4.18;;;16.00;85.80;;;;;;4193056;28;20051;-66
2023/01/13 00:10:32;;;;;;;17.88;3.83;;;16.00;85.60;;;;;;4192764;28;20411;-66
2023/01/13 00:13:12;;;;;;;17.70;4.00;;;16.00;85.60;;;;;;4191976;28;20130;-66
2023/01/13 00:15:57;;;;;;;21.73;4.60;;;16.00;85.50;;;;;;4187896;28;20739;-66
2023/01/13 00:18:38;;;;;;;21.50;4.53;;;16.10;85.20;;;;;;4192212;28;20097;-66
2023/01/13 00:21:21;;;;;;;21.77;5.22;;;16.10;85.00;;;;;;4192601;28;20063;-66
2023/01/13 00:24:01;;;;;;;20.77;4.32;;;16.10;85.40;;;;;;4192939;28;20042;-66
2023/01/13 00:26:44;;;;;;;18.67;4.25;;;16.10;85.20;;;;;;4193109;28;20047;-65
2023/01/13 00:29:25;;;;;;;22.27;4.90;;;16.10;85.10;;;;;;4192737;28;20098;-65
2023/01/13 00:32:06;;;;;;;21.25;3.80;;;16.10;85.20;;;;;;4192742;28;20047;-66
2023/01/13 00:34:46;;;;;;;27.10;4.95;;;16.10;85.20;;;;;;4192999;28;20610;-65
2023/01/13 00:37:27;;;;;;;18.83;3.25;;;16.10;84.80;;;;;;4192827;28;20093;-65
2023/01/13 00:40:10;;;;;;;21.88;5.22;;;16.10;84.80;;;;;;4191621;28;20066;-65
2023/01/13 00:45:52;;;;;;;27.13;4.93;;;16.10;84.30;;;;;;4192386;28;20083;-65
2023/01/13 00:48:33;;;;;;;26.63;5.57;;;16.20;84.40;;;;;;4191986;28;20182;-65
2023/01/13 00:51:16;;;;;;;24.00;4.63;;;16.10;84.30;;;;;;4192934;28;20055;-65
2023/01/13 00:53:58;;;;;;;25.02;5.68;;;16.10;84.40;;;;;;4190818;28;20103;-65
2023/01/13 00:56:39;;;;;;;22.77;4.45;;;16.10;84.90;;;;;;4192508;28;20685;-65
2023/01/13 00:59:22;;;;;;;24.58;5.00;;;16.20;83.80;;;;;;4191409;28;20422;-65
2023/01/13 01:02:03;;;;;;;21.98;5.88;;;16.20;84.00;;;;;;4192844;28;20077;-64
2023/01/13 01:04:44;;;;;;;28.73;6.05;;;16.20;84.10;;;;;;4192622;28;20056;-64
2023/01/13 01:07:25;;;;;;;25.17;5.28;;;16.20;84.70;;;;;;4191934;28;20051;-64
2023/01/13 01:10:07;;;;;;;18.35;4.63;;;16.20;84.00;;;;;;4192563;28;20401;-64
2023/01/13 01:12:49;;;;;;;28.08;6.20;;;16.10;84.60;;;;;;4192553;28;20047;-64
2023/01/13 01:15:32;;;;;;;28.17;5.22;;;16.20;84.00;;;;;;4192248;28;20051;-64
2023/01/13 01:18:13;;;;;;;16.73;3.28;;;16.20;83.50;;;;;;4190944;28;20066;-64
2023/01/13 01:20:54;;;;;;;21.50;5.00;;;16.20;84.00;;;;;;4192804;28;20122;-64
2023/01/13 01:23:37;;;;;;;28.30;5.13;;;16.20;84.30;;;;;;4190478;28;20052;-64
2023/01/13 01:26:21;;;;;;;30.58;5.65;;;16.20;84.10;;;;;;4175806;28;20495;-65
2023/01/13 01:29:02;;;;;;;29.95;5.53;;;16.30;83.60;;;;;;4182804;28;20060;-64
2023/01/13 01:31:44;;;;;;;16.17;3.58;;;16.30;83.10;;;;;;4192215;28;20503;-65
2023/01/13 01:34:25;;;;;;;22.63;4.78;;;16.30;83.20;;;;;;4192445;28;20066;-65
2023/01/13 01:37:06;;;;;;;25.08;5.05;;;16.20;83.10;;;;;;4192393;28;20174;-64
2023/01/13 01:39:46;;;;;;;25.13;5.90;;;16.20;82.70;;;;;;4192135;28;20050;-64
2023/01/13 01:45:29;;;;;;;25.08;5.90;;;16.10;82.70;;;;;;4191696;28;20534;-65
2023/01/13 01:48:11;;;;;;;20.08;4.97;;;16.10;84.20;;;;;;4190890;28;20125;-64
2023/01/13 01:50:53;;;;;;;25.08;5.38;;;16.10;83.70;;;;;;4192172;28;20091;-65
2023/01/13 01:53:34;;;;;;;23.63;4.78;;;16.10;83.40;;;;;;4192051;28;20055;-64
2023/01/13 01:56:17;;;;;;;30.63;5.90;;;16.10;83.40;;;;;;4192181;28;20055;-64
2023/01/13 01:58:59;;;;;;;25.50;5.38;;;16.10;83.40;;;;;;4190600;28;20047;-64
2023/01/13 02:01:41;;;;;;;27.95;6.07;;;16.10;84.10;;;;;;4189739;28;20133;-64
2023/01/13 02:04:29;;;;;;;32.15;6.53;;;16.20;82.80;;;;;;4192218;28;20047;-63
2023/01/13 02:07:10;;;;;;;23.00;5.22;;;16.10;82.00;;;;;;4192256;28;20059;-64
2023/01/13 02:09:52;;;;;;;22.20;4.22;;;16.10;82.40;;;;;;4178937;28;20052;-64
2023/01/13 02:12:35;;;;;;;25.38;4.78;;;16.10;82.80;;;;;;4177541;28;20384;-65
2023/01/13 02:15:18;;;;;;;21.08;4.68;;;16.10;82.40;;;;;;4178574;28;20052;-65
2023/01/13 02:18:31;;;;;;;24.23;6.53;;;16.10;82.30;;;;;;4188241;28;20063;-65
2023/01/13 02:21:36;;;;;;;30.27;5.72;;;16.10;81.90;;;;;;4194670;28;20047;-65
2023/01/13 02:24:57;;;;;;;24.63;5.30;;;16.10;81.80;;;;;;4194889;28;20059;-65
2023/01/13 02:27:54;;;;;;;19.05;5.40;;;16.10;81.90;;;;;;4194585;28;20515;-64
2023/01/13 02:34:04;;;;;;;28.60;5.13;;;16.00;83.20;;;;;;4194734;28;20071;-65
2023/01/13 02:36:51;;;;;;;19.98;4.68;;;16.10;82.40;;;;;;4187592;28;20557;-65
2023/01/13 02:39:36;;;;;;;19.17;4.53;;;16.10;82.70;;;;;;4195006;28;20117;-65
2023/01/13 02:45:28;;;;;;;25.00;4.32;;;16.00;82.90;;;;;;4194053;28;20064;-65
2023/01/13 02:48:13;;;;;;;20.00;5.03;;;16.00;82.90;;;;;;4194778;28;20110;-65
2023/01/13 02:50:59;;;;;;;30.27;5.20;;;15.90;84.00;;;;;;4194061;28;20047;-65
2023/01/13 02:53:45;;;;;;;30.35;6.15;;;15.90;83.30;;;;;;4194733;28;20058;-65
2023/01/13 02:56:27;;;;;;;26.65;4.88;;;15.90;83.20;;;;;;4179251;28;20060;-65
2023/01/13 02:59:09;;;;;;;12.07;2.72;;;15.90;83.20;;;;;;4194827;28;20055;-65
2023/01/13 03:01:51;;;;;;;24.73;4.80;;;15.80;83.70;;;;;;4194486;28;20086;-65
2023/01/13 03:04:52;;;;;;;20.52;4.60;;;15.80;83.60;;;;;;4194384;28;20094;-65
2023/01/13 03:07:54;;;;;;;23.33;4.70;;;15.90;82.70;;;;;;4189929;28;20071;-65
2023/01/13 03:10:47;;;;;;;25.65;5.28;;;15.90;82.40;;;;;;4194302;28;20105;-65
2023/01/13 03:13:58;;;;;;;26.23;4.95;;;16.00;82.10;;;;;;4193982;28;20089;-66
2023/01/13 03:17:00;;;;;;;20.13;3.80;;;16.00;82.10;;;;;;4177816;28;20377;-65
2023/01/13 03:19:46;;;;;;;25.85;4.80;;;16.10;82.50;;;;;;4164904;28;20511;-64
2023/01/13 03:22:34;;;;;;;19.42;4.53;;;16.10;82.70;;;;;;4177837;28;20060;-64
2023/01/13 03:25:22;;;;;;;15.88;4.30;;;16.10;82.20;;;;;;4188410;28;20051;-64
2023/01/13 03:28:07;;;;;;;22.40;4.20;;;16.20;82.30;;;;;;4193969;28;20059;-64
2023/01/13 03:30:53;;;;;;;23.15;4.72;;;16.20;82.00;;;;;;4194151;28;20050;-64
2023/01/13 03:33:40;;;;;;;20.20;3.90;;;16.20;81.40;;;;;;4192874;28;20115;-64
2023/01/13 03:36:25;;;;;;;21.45;3.70;;;16.20;81.40;;;;;;4177741;28;20051;-64
2023/01/13 03:39:12;;;;;;;23.65;4.40;;;16.20;81.70;;;;;;4177485;28;20052;-64
2023/01/13 03:41:58;;;;;;;20.33;4.20;;;16.20;81.40;;;;;;4191111;28;20404;-63
2023/01/13 03:44:43;;;;;;;22.55;5.03;;;16.20;80.90;;;;;;4192511;28;20056;-63
2023/01/13 03:47:30;;;;;;;21.63;5.40;;;16.20;81.20;;;;;;4193982;28;20419;-63
2023/01/13 03:50:18;;;;;;;16.17;3.80;;;16.20;81.10;;;;;;4193973;28;20499;-63
2023/01/13 03:53:03;;;;;;;21.27;4.55;;;16.20;81.00;;;;;;4193383;28;20051;-63
2023/01/13 03:55:50;;;;;;;23.52;4.85;;;16.20;81.30;;;;;;4193832;28;20186;-64
2023/01/13 03:58:35;;;;;;;21.60;4.22;;;16.20;81.10;;;;;;4193276;28;20063;-63
2023/01/13 04:01:19;;;;;;;19.55;3.70;;;16.20;81.20;;;;;;4193699;28;20098;-63
2023/01/13 04:04:03;;;;;;;19.17;3.72;;;16.20;81.50;;;;;;4193745;28;20550;-64
2023/01/13 04:06:50;;;;;;;19.25;3.58;;;16.20;81.40;;;;;;4193476;28;20059;-63
2023/01/13 04:09:37;;;;;;;21.27;4.32;;;16.20;81.10;;;;;;4193502;28;20137;-63
2023/01/13 04:12:24;;;;;;;21.67;4.43;;;16.20;80.90;;;;;;4193456;28;20145;-63
2023/01/13 04:15:06;;;;;;;22.33;4.90;;;16.20;80.80;;;;;;4192822;28;20048;-64
2023/01/13 04:17:46;;;;;;;;;;;16.20;81.00;;;;;;4193183;28;20047;-63
2023/01/13 04:20:27;;;;;;;21.35;4.95;;;16.20;81.50;;;;;;4193381;28;19931;-63
2023/01/13 04:23:09;;;;;;;19.10;4.47;;;16.30;81.50;;;;;;4193049;28;20051;-63
2023/01/13 04:25:51;;;;;;;31.38;5.68;;;16.30;81.50;;;;;;4193300;28;20059;-64
2023/01/13 04:28:33;;;;;;;25.00;5.35;;;16.30;81.10;;;;;;4176615;28;20056;-64
2023/01/13 04:31:14;;;;;;;20.33;4.20;;;16.30;80.80;;;;;;4174555;28;20059;-63
2023/01/13 04:33:54;;;;;;;20.27;4.45;;;16.30;81.90;;;;;;4179210;28;20047;-64
2023/01/13 04:36:36;;;;;;;21.92;4.30;;;16.30;81.90;;;;;;4193007;28;20147;-63
2023/01/13 04:39:17;;;;;;;23.83;4.68;;;16.30;80.70;;;;;;4192692;28;20401;-64
2023/01/13 04:41:58;;;;;;;22.95;4.50;;;16.30;80.80;;;;;;4192983;28;20102;-64
2023/01/13 04:44:40;;;;;;;24.20;5.35;;;16.30;80.40;;;;;;4192767;28;20074;-64
2023/01/13 04:47:21;;;;;;;18.90;4.88;;;16.30;80.00;;;;;;4193049;28;20059;-64
2023/01/13 04:50:02;;;;;;;22.30;4.70;;;16.30;80.00;;;;;;4192972;28;20178;-64
2023/01/13 04:52:42;;;;;;;23.02;3.60;;;16.30;80.20;;;;;;4187355;28;20186;-64
2023/01/13 04:55:25;;;;;;;21.23;5.40;;;16.20;80.70;;;;;;4191703;28;20055;-64
2023/01/13 04:58:06;;;;;;;28.52;5.13;;;16.20;80.60;;;;;;4176195;28;20051;-63
2023/01/13 05:00:50;;;;;;;18.83;3.88;;;16.30;80.50;;;;;;4159991;28;20404;-63
2023/01/13 05:03:30;;;;;;;20.33;4.85;;;16.30;80.50;;;;;;4159830;28;20048;-63
2023/01/13 05:06:11;;;;;;;25.65;5.13;;;16.30;80.40;;;;;;4159774;28;20088;-63
2023/01/13 05:08:52;;;;;;;19.85;4.50;;;16.20;80.30;;;;;;4164231;28;20718;-63
2023/01/13 05:17:32;;;;;;;20.20;3.80;;;16.20;81.10;;;;;;4190863;28;20059;-64
2023/01/13 05:20:13;;;;;;;19.20;4.05;;;16.20;79.90;;;;;;4192637;28;20407;-63
2023/01/13 05:25:53;;;;;;;20.95;4.30;;;16.20;79.90;;;;;;4208720;27;20502;-64
2023/01/13 05:28:34;;;;;;;23.10;5.33;;;16.20;80.10;;;;;;4207190;27;20055;-64
2023/01/13 05:31:15;;;;;;;20.83;4.53;;;16.20;80.00;;;;;;4192459;28;20051;-63
2023/01/13 05:33:57;;;;;;;17.88;4.75;;;16.20;80.10;;;;;;4192509;28;20059;-63
2023/01/13 05:36:38;;;;;;;23.40;3.92;;;16.20;80.20;;;;;;4193518;28;20047;-63
2023/01/13 05:39:19;;;;;;;24.38;4.57;;;16.20;79.80;;;;;;4208949;27;20188;-65
2023/01/13 05:44:58;;;;;;;21.70;4.38;;;16.30;79.80;;;;;;4212620;27;20059;-65
2023/01/13 05:47:39;;;;;;;20.20;4.63;;;16.30;79.30;;;;;;4204160;27;20047;-65
2023/01/13 05:50:22;;;;;;;18.80;4.15;;;16.30;79.50;;;;;;4196230;28;20086;-65
2023/01/13 05:53:03;;;;;;;22.50;4.72;;;16.30;79.10;;;;;;4196604;28;20533;-64
2023/01/13 05:55:44;;;;;;;17.08;4.35;;;16.30;79.40;;;;;;4196445;28;20051;-65
2023/01/13 05:58:26;;;;;;;;;;;16.30;79.40;;;;;;4197978;28;20051;-65
2023/01/13 06:01:08;;;;;;;17.10;4.25;;;16.30;79.30;;;;;;4181287;28;20074;-65
2023/01/13 06:03:49;;;;;;;18.92;4.40;;;16.30;79.50;;;;;;4181257;28;20047;-64
2023/01/13 06:06:32;;;;;;;23.38;4.28;;;16.20;79.50;;;;;;4182127;28;20036;-64
2023/01/13 06:09:13;;;;;;;22.15;3.92;;;16.30;79.60;;;;;;4196543;28;20055;-65
2023/01/13 06:11:54;;;;;;;20.92;4.80;;;16.30;79.00;;;;;;4196619;28;20089;-64
2023/01/13 06:14:39;;;;;;;23.90;4.97;;;16.30;79.00;;;;;;4197927;28;20047;-64
2023/01/13 06:17:20;;;;;;;21.27;4.00;;;16.30;79.10;;;;;;4197545;28;20515;-64
2023/01/13 06:20:01;;;;;;;16.25;3.42;;;16.30;79.00;;;;;;4197307;28;20059;-64
2023/01/13 06:22:47;;;;;;;21.02;4.28;;;16.30;79.10;;;;;;4197403;28;20056;-65
2023/01/13 06:25:39;;;;;;;16.50;4.75;;;16.30;79.10;;;;;;4197736;28;20167;-64
2023/01/13 06:28:21;;;;;;;18.88;4.68;;;16.30;78.80;;;;;;4197019;28;20051;-64
2023/01/13 06:31:05;;;;;;;20.15;3.28;;;16.30;78.70;;;;;;4196449;28;20182;-64
2023/01/13 06:33:52;;;;;;;14.27;3.03;;;16.30;78.50;;;;;;4197084;28;20166;-64
2023/01/13 06:36:38;;;;;;;20.38;3.67;;;16.30;79.10;;;;;;4195665;28;20044;-64
2023/01/13 06:39:26;;;;;;;18.75;4.35;;;16.30;79.00;;;;;;4180852;28;20388;-64
2023/01/13 06:45:07;;;;;;;15.38;3.38;;;16.30;79.00;;;;;;4192142;28;20122;-65
2023/01/13 06:47:48;;;;;;;13.73;3.83;;;16.30;79.00;;;;;;4195073;28;20066;-63
2023/01/13 06:50:29;;;;;;;21.08;4.30;;;16.30;78.70;;;;;;4197393;28;20042;-64
2023/01/13 06:53:10;;;;;;;17.35;3.28;;;16.30;79.00;;;;;;4195653;28;20052;-64
2023/01/13 06:55:53;;;;;;;12.48;3.20;;;16.30;78.10;;;;;;4193923;28;20110;-61
2023/01/13 06:58:34;;;;;;;16.27;3.55;;;16.30;78.50;;;;;;4194836;28;20043;-61
2023/01/13 07:01:14;;;;;;;19.85;3.67;;;16.30;78.40;;;;;;4194792;28;20174;-63
2023/01/13 07:03:57;;;;;;;15.02;2.92;;;16.30;78.40;;;;;;4194334;28;20052;-64
2023/01/13 07:06:38;;;;;;;11.70;2.65;;;16.30;78.30;;;;;;4192294;28;20059;-64
2023/01/13 07:09:18;;;;;;;16.65;3.13;;;16.30;78.60;;;;;;4194340;28;20079;-63
2023/01/13 07:12:01;;;;;;;15.02;3.15;;;16.30;78.00;;;;;;4194097;28;20082;-64
2023/01/13 07:17:40;;;;;;;14.93;3.00;;;16.50;79.60;;;;;;4177670;28;20048;-64
2023/01/13 07:20:21;;;;;;;12.30;3.45;;;16.60;79.00;;;;;;4176840;28;20055;-63
2023/01/13 07:23:03;;;;;;;18.90;3.90;;;16.70;78.60;;;;;;4186314;28;20043;-63
2023/01/13 07:25:44;;;;;;;16.30;2.33;;;16.70;78.20;;;;;;4193156;28;20094;-64
2023/01/13 07:28:27;;;;;;;17.40;3.63;;;16.80;77.80;;;;;;4194162;28;20055;-63
2023/01/13 07:31:14;;;;;;;17.17;3.15;;;16.80;77.10;;;;;;4194269;28;20043;-63
2023/01/13 07:33:55;;;;;;;14.75;3.58;;;16.80;76.60;;;;;;4193725;28;20063;-63
2023/01/13 07:36:36;;;;;;;12.35;3.00;;;16.70;76.50;;;;;;4193942;28;20060;-64
2023/01/13 07:39:17;;;;;;;13.15;3.05;;;16.70;76.50;;;;;;4193637;28;20062;-64
2023/01/13 07:44:58;;;;;;;11.07;2.42;;;16.70;76.70;;;;;;4191673;28;20047;-64
2023/01/13 07:47:39;;;;;;;15.00;2.97;;;16.80;76.50;;;;;;4193707;28;20511;-64
2023/01/13 07:50:22;;;;;;;15.10;3.00;;;16.80;76.40;;;;;;4193215;28;20063;-64
2023/01/13 07:53:03;;;;;;;10.93;2.90;;;16.80;76.50;;;;;;4191998;28;20055;-63
2023/01/13 07:55:44;;;;;;;11.82;2.60;;;16.80;76.20;;;;;;4177144;28;20475;-66
2023/01/13 07:58:27;;;;;;;8.45;2.58;;;16.90;75.90;;;;;;4177174;28;20052;-64
2023/01/13 08:01:10;;;;;;;15.10;3.38;;;16.90;75.60;;;;;;4160800;28;20503;-64
2023/01/13 08:03:52;;;;;;;13.02;3.60;;;16.90;75.10;;;;;;4173988;28;20095;-64
2023/01/13 08:06:33;;;;;;;13.48;2.78;;;16.90;75.20;;;;;;4193047;28;20056;-64
2023/01/13 08:09:13;;;;;;;14.82;2.97;;;16.80;75.20;;;;;;4193319;28;20055;-64
2023/01/13 08:13:16;;;;;;;9.55;2.17;;;16.80;75.30;;;;;;4193360;28;20050;-65
2023/01/13 08:14:56;;;;;;;18.60;3.63;;;16.70;75.80;;;;;;4185108;28;20048;-65
2023/01/13 08:17:38;;;;;;;14.68;2.92;;;16.70;75.70;;;;;;4193561;28;20052;-65
2023/01/13 08:20:19;;;;;;;14.65;3.85;;;16.70;75.40;;;;;;4193075;28;20137;-65
2023/01/13 08:23:00;;;;;;;12.70;3.63;;;16.70;75.30;;;;;;4176924;28;20059;-65
2023/01/13 08:25:42;;;;;;;14.38;3.10;;;16.70;75.00;;;;;;4175703;28;20114;-65
2023/01/13 08:28:23;;;;;;;18.63;2.88;;;16.70;74.90;;;;;;4175756;28;20059;-65
2023/01/13 08:31:06;;;;;;;14.05;3.08;;;16.70;74.90;;;;;;4179731;28;20185;-65
2023/01/13 08:33:49;;;;;;;9.65;2.05;;;16.70;74.60;;;;;;4192454;28;20075;-65
2023/01/13 08:36:30;;;;;;;16.90;3.47;;;16.70;74.80;;;;;;4193271;28;20059;-65
2023/01/13 08:39:11;;;;;;;12.25;3.00;;;16.60;74.90;;;;;;4175459;28;20047;-64
2023/01/13 08:41:58;;;;;;;13.23;2.83;;;16.70;75.10;;;;;;4176831;28;20087;-65
2023/01/13 08:44:38;;;;;;;12.48;3.10;;;16.60;75.00;;;;;;4188729;28;20186;-65
2023/01/13 08:47:20;;;;;;;17.33;4.15;;;16.60;75.20;;;;;;4192115;28;20617;-65
2023/01/13 08:50:02;;;;;;;12.75;3.25;;;16.60;75.10;;;;;;4192047;28;20048;-65
2023/01/13 08:52:43;;;;;;;10.10;3.03;;;16.60;75.10;;;;;;4192402;28;20051;-66
2023/01/13 08:55:24;;;;;;;14.95;3.53;;;16.60;75.00;;;;;;4192724;28;20102;-67
2023/01/13 08:58:06;;;;;;;16.42;3.95;;;16.50;75.10;;;;;;4191119;28;20051;-66
2023/01/13 09:00:55;;;;;;;17.67;3.65;;;16.60;75.20;;;;;;4191055;28;20299;-65
2023/01/13 09:03:37;;;;;;;16.48;4.07;;;16.60;74.80;;;;;;4192370;28;20051;-65
2023/01/13 09:06:20;;;;;;;14.02;3.75;;;16.70;74.50;;;;;;4188488;28;20230;-65
2023/01/13 09:09:01;;;;;;;16.63;4.05;;;16.70;74.30;;;;;;4190843;28;20052;-65
2023/01/13 09:14:43;;;;;;;15.90;3.35;;;16.90;73.60;;;;;;4192258;28;20052;-66
2023/01/13 09:17:24;;;;;;;10.48;3.70;;;16.90;73.10;;;;;;4190871;28;20059;-66
2023/01/13 09:20:05;;;;;;;19.10;4.13;;;16.90;72.70;;;;;;4192175;28;20795;-66
2023/01/13 09:22:48;;;;;;;18.27;3.15;;;17.00;72.70;;;;;;4192307;28;20071;-66
2023/01/13 09:25:29;;;;;;;12.73;3.95;;;17.00;72.50;;;;;;4187083;28;20055;-66
2023/01/13 09:28:10;;;;;;;16.38;3.05;;;17.10;72.10;;;;;;4190546;28;20419;-66
2023/01/13 09:30:51;;;;;;;15.95;3.45;;;17.10;72.00;;;;;;4188493;28;20067;-66
2023/01/13 09:36:30;;;;;;;11.77;3.30;;;17.10;71.80;;;;;;4175306;28;20048;-66
2023/01/13 09:39:13;;;;;;;9.25;2.42;;;17.00;71.70;;;;;;4175076;28;20055;-66
2023/01/13 09:44:58;;;;;;;;;;;17.00;71.80;;;;;;4182057;28;20051;-67
2023/01/13 09:47:45;;;;;;;10.00;2.80;;;16.90;72.10;;;;;;4175394;28;21578;-65
2023/01/13 09:50:37;;;;;;;12.20;2.90;;;16.90;72.50;;;;;;4178888;28;20051;-66
2023/01/13 09:53:21;;;;;;;11.35;2.65;;;16.80;72.60;;;;;;4175138;28;20079;-66
2023/01/13 09:56:04;;;;;;;15.73;3.03;;;16.80;72.60;;;;;;4183232;28;20407;-65
2023/01/13 09:58:47;;;;;;;16.00;3.25;;;16.80;72.70;;;;;;4189587;28;20704;-65
2023/01/13 10:01:35;;;;;;;15.30;3.40;;;16.80;72.90;;;;;;4191563;28;20047;-65
2023/01/13 10:04:16;;;;;;;19.70;2.60;;;16.70;73.10;;;;;;4191995;28;20052;-65
2023/01/13 10:07:01;;;;;;;17.33;3.72;;;16.60;73.40;;;;;;4191786;28;20052;-65
2023/01/13 10:09:48;;;;;;;15.43;3.10;;;16.60;73.70;;;;;;4191614;28;20511;-67
2023/01/13 10:15:30;;;;;;;16.13;3.53;;;16.50;74.50;;;;;;4191409;28;20055;-65
2023/01/13 10:18:18;;;;;;;12.33;3.17;;;16.50;74.50;;;;;;4191731;28;20170;-67
2023/01/13 10:21:08;;;;;;;13.38;3.10;;;16.60;74.20;;;;;;4191048;28;20316;-65
2023/01/13 10:24:00;;;;;;;22.67;3.83;;;16.70;74.30;;;;;;4173955;28;20060;-64
2023/01/13 10:26:52;;;;;;;14.80;2.72;;;16.70;73.80;;;;;;4175884;28;20059;-65
2023/01/13 10:29:36;;;;;;;10.15;2.40;;;16.80;73.80;;;;;;4182548;28;20052;-64
2023/01/13 10:32:17;;;;;;;13.20;3.20;;;16.80;73.50;;;;;;4176354;28;20053;-64
2023/01/13 10:34:59;;;;;;;13.07;3.15;;;16.80;73.60;;;;;;4178510;28;20487;-65
2023/01/13 10:37:40;;;;;;;11.10;2.85;;;16.80;73.50;;;;;;4177653;28;20060;-64
2023/01/13 10:40:21;;;;;;;7.97;1.95;;;16.80;73.60;;;;;;4185093;28;20063;-64
2023/01/13 10:43:06;;;;;;;18.92;3.72;;;16.80;73.60;;;;;;4183806;28;20064;-64
2023/01/13 10:46:02;;;;;;;13.13;2.58;;;16.70;73.50;;;;;;4186730;28;20051;-64
2023/01/13 10:48:51;;;;;;;14.90;2.55;;;16.60;73.80;;;;;;4184602;28;20408;-65
2023/01/13 10:51:43;;;;;;;12.77;3.22;;;16.60;74.20;;;;;;4188995;28;20105;-64
2023/01/13 10:54:25;;;;;;;13.82;3.40;;;16.60;74.10;;;;;;4180640;28;20569;-64
2023/01/13 10:57:14;;;;;;;12.40;2.35;;;16.70;73.90;;;;;;4192160;28;20083;-64
2023/01/13 10:59:56;;;;;;;10.02;2.72;;;16.80;73.50;;;;;;4174884;28;20712;-64
2023/01/13 11:02:38;;;;;;;13.48;3.20;;;16.90;73.20;;;;;;4175329;28;20503;-64
2023/01/13 11:05:24;;;;;;;12.27;2.97;;;16.90;72.80;;;;;;4159261;28;20135;-65
2023/01/13 11:08:05;;;;;;;17.00;3.42;;;16.90;72.60;;;;;;4183932;28;20182;-65
2023/01/13 11:10:49;;;;;;;14.18;2.53;;;16.90;72.50;;;;;;4180701;28;20051;-64
2023/01/13 11:13:34;;;;;;;12.77;2.85;;;16.90;72.50;;;;;;4180471;28;20052;-65
2023/01/13 11:16:17;;;;;;;8.35;2.72;;;16.90;72.80;;;;;;4181931;28;20052;-65
2023/01/13 11:19:10;;;;;;;13.82;3.20;;;16.80;73.00;;;;;;4176480;28;20056;-66
2023/01/13 11:21:56;;;;;;;17.90;3.55;;;16.90;73.10;;;;;;4191264;28;20083;-65
2023/01/13 11:24:42;;;;;;;18.73;3.83;;;16.90;74.10;;;;;;4180958;28;20071;-65
2023/01/13 11:27:34;;;;;;;15.60;2.90;;;16.90;73.30;;;;;;4174248;28;20051;-65
2023/01/13 11:30:29;;;;;;;11.65;2.65;;;16.80;73.40;;;;;;4175158;28;20204;-65
2023/01/13 11:33:27;;;;;;;17.65;3.30;;;16.70;73.60;;;;;;4175446;28;20511;-65
2023/01/13 11:36:16;;;;;;;9.90;2.78;;;16.70;74.00;;;;;;4174872;28;20056;-64
2023/01/13 11:39:18;;;;;;;12.13;3.22;;;16.70;74.10;;;;;;4175662;28;20052;-64
2023/01/13 11:42:22;;;;;;;12.38;2.95;;;16.80;74.00;;;;;;4190754;28;20403;-65
2023/01/13 11:45:15;;;;;;;8.10;2.47;;;16.80;73.80;;;;;;4178579;28;20064;-65
2023/01/13 11:48:00;;;;;;;12.48;2.45;;;16.80;73.80;;;;;;4193851;28;20125;-64
2023/01/13 11:50:49;;;;;;;14.95;3.20;;;16.70;73.90;;;;;;4175170;28;20105;-65
2023/01/13 11:53:47;;;;;;;15.98;2.85;;;16.70;73.80;;;;;;4190573;28;20165;-65
2023/01/13 11:56:46;;;;;;;13.75;3.25;;;16.60;74.00;;;;;;4174182;28;20060;-64
2023/01/13 11:59:56;;;;;;;10.02;2.90;;;16.60;74.60;;;;;;4174849;28;20056;-63
2023/01/13 12:02:52;;;;;;;10.93;2.58;;;16.60;74.80;;;;;;4174990;28;20399;-64
2023/01/13 12:05:37;;;;;;;8.73;2.50;;;16.60;74.70;;;;;;4173608;28;20059;-64
2023/01/13 12:08:22;;;;;;;9.63;2.28;;;16.70;74.60;;;;;;4178402;28;20117;-64
2023/01/13 12:11:15;;;;;;;11.38;3.22;;;16.70;74.40;;;;;;4190193;28;20059;-64
2023/01/13 12:14:16;;;;;;;11.13;2.90;;;16.70;74.30;;;;;;4174000;28;20043;-63
2023/01/13 12:16:58;;;;;;;;;;;16.70;74.20;;;;;;4186084;28;20514;-64
2023/01/13 12:19:47;;;;;;;12.80;2.78;;;16.70;74.30;;;;;;4195250;28;20013;-64
2023/01/13 12:22:31;;;;;;;10.52;1.92;;;16.70;74.30;;;;;;4178126;28;20064;-63
2023/01/13 12:25:21;;;;;;;8.23;2.20;;;16.70;74.30;;;;;;4181633;28;20510;-63
2023/01/13 12:28:10;;;;;;;12.93;2.58;;;16.70;74.20;;;;;;4175624;28;20060;-63
2023/01/13 12:30:54;;;;;;;11.32;3.03;;;16.70;74.10;;;;;;4189798;28;20522;-63
2023/01/13 12:33:47;;;;;;;9.10;2.17;;;16.70;74.00;;;;;;4174869;28;20051;-64
2023/01/13 12:36:34;;;;;;;7.57;1.75;;;16.70;74.00;;;;;;4172696;28;20055;-63
2023/01/13 12:39:21;;;;;;;8.82;2.00;;;16.70;74.10;;;;;;4177605;28;20056;-63
2023/01/13 12:45:30;;;;;;;9.60;2.65;;;16.70;74.20;;;;;;4157838;28;20053;-63
2023/01/13 12:49:04;;;;;;;4.07;1.55;;;16.70;73.40;;;;;;4172010;28;20060;-63
2023/01/13 12:52:06;;;;;;;7.78;2.58;;;16.80;73.50;;;;;;4163790;28;20056;-64
2023/01/13 12:55:14;;;;;;;6.80;2.15;;;16.90;72.80;;;;;;4157517;28;20048;-63
2023/01/13 12:57:58;;;;;;;9.82;2.75;;;16.80;72.60;;;;;;4160103;28;20136;-63
2023/01/13 13:00:56;;;;;;;6.63;2.17;;;16.80;73.00;;;;;;4173306;28;20126;-64
2023/01/13 13:03:37;;;;;;;6.05;1.52;;;16.70;72.70;;;;;;4157623;28;20128;-63
2023/01/13 13:06:20;;;;;;;7.63;2.05;;;16.70;73.10;;;;;;4177890;28;20068;-63
2023/01/13 13:09:03;;;;;;;6.75;1.77;;;16.60;73.60;;;;;;4189884;28;20051;-63
2023/01/13 13:15:03;;;;;;;9.20;2.30;;;16.70;73.50;;;;;;4173852;28;20614;-63
2023/01/13 13:18:02;;;;;;;11.10;3.90;;;16.70;73.10;;;;;;4182698;28;20059;-63
2023/01/13 13:21:01;;;;;;;7.60;2.10;;;16.70;73.70;;;;;;4185436;28;20048;-63
2023/01/13 13:24:04;;;;;;;10.20;1.55;;;16.70;72.70;;;;;;4184442;28;20060;-63
2023/01/13 13:26:45;;;;;;;8.13;1.35;;;16.70;72.90;;;;;;4172324;28;20562;-64
2023/01/13 13:29:46;;;;;;;5.72;1.63;;;16.60;73.30;;;;;;4172234;28;20132;-63
2023/01/13 13:32:56;;;;;;;9.48;2.20;;;16.60;73.20;;;;;;4182421;28;20141;-63
2023/01/13 13:35:55;;;;;;;11.60;2.28;;;16.70;73.10;;;;;;4188943;28;20055;-63
2023/01/13 13:48:23;;;;;;;8.52;1.83;;;16.70;73.00;;;;;;4174184;28;20052;-63
2023/01/13 13:51:25;;;;;;;10.23;2.20;;;16.70;72.90;;;;;;4173077;28;20052;-64
2023/01/13 13:54:10;;;;;;;9.15;1.77;;;16.70;72.80;;;;;;4174347;28;20052;-63
2023/01/13 13:56:51;;;;;;;6.18;1.90;;;16.70;72.80;;;;;;4187727;28;20071;-63
2023/01/13 13:59:33;;;;;;;8.93;1.90;;;16.80;72.80;;;;;;4188252;28;20123;-63
2023/01/13 14:02:18;;;;;;;;;;;16.70;72.60;;;;;;4190295;28;20507;-63
2023/01/13 14:05:18;;;;;;;8.15;1.80;;;16.70;72.90;;;;;;4176808;28;20391;-63
2023/01/13 14:08:01;;;;;;;5.20;1.48;;;16.60;72.70;;;;;;4180856;28;20060;-63
2023/01/13 14:10:44;;;;;;;8.68;1.92;;;16.60;72.80;;;;;;4177101;28;20388;-63
2023/01/13 14:13:27;;;;;;;5.57;2.10;;;16.50;73.10;;;;;;4184335;28;20110;-63
2023/01/13 14:16:15;;;;;;;5.63;1.80;;;16.50;73.20;;;;;;4169571;28;20056;-63
2023/01/13 14:18:56;;;;;;;3.95;1.60;;;16.60;72.80;;;;;;4164195;28;20183;-63
2023/01/13 14:21:38;;;;;;;7.97;1.63;;;16.60;72.70;;;;;;4167560;28;20484;-63
2023/01/13 14:24:21;;;;;;;12.68;1.88;;;16.60;72.70;;;;;;4167484;28;20060;-63
2023/01/13 14:27:15;;;;;;;9.43;1.73;;;16.60;72.60;;;;;;4169060;28;20056;-63
2023/01/13 14:29:58;;;;;;;7.35;2.03;;;16.60;72.10;;;;;;4168599;28;20060;-63
2023/01/13 14:32:40;;;;;;;6.18;1.77;;;16.50;72.20;;;;;;4170109;28;20103;-65
2023/01/13 14:35:21;;;;;;;4.63;1.27;;;16.50;72.30;;;;;;4169803;28;20102;-63
2023/01/13 14:38:04;;;;;;;12.10;2.22;;;16.40;72.60;;;;;;4168871;28;20092;-62
2023/01/13 14:40:45;;;;;;;5.32;1.23;;;16.30;72.50;;;;;;4177980;28;20052;-63
2023/01/13 14:43:27;;;;;;;5.30;1.83;;;16.30;72.60;;;;;;4180158;28;20059;-63
2023/01/13 14:46:07;;;;;;;9.20;1.85;;;16.20;73.00;;;;;;4188036;28;20059;-63
2023/01/13 14:48:53;;;;;;;8.98;1.95;;;16.10;73.60;;;;;;4178651;28;20071;-63
2023/01/13 14:51:33;;;;;;;5.43;1.80;;;16.10;74.00;;;;;;4175739;28;20190;-63
2023/01/13 14:54:50;;;;;;;12.48;2.20;;;16.10;74.10;;;;;;4176205;28;20048;-63
2023/01/13 14:57:32;;;;;;;13.73;3.03;;;16.10;73.90;;;;;;4154803;28;20175;-63
2023/01/13 15:00:22;;;;;;;12.82;1.95;;;16.10;74.00;;;;;;4156266;28;20060;-63
2023/01/13 15:03:07;;;;;;;6.95;2.00;;;16.10;73.90;;;;;;4175906;28;20184;-63
2023/01/13 15:05:50;;;;;;;7.90;2.60;;;16.10;73.90;;;;;;4175758;28;20044;-63
2023/01/13 15:08:39;;;;;;;8.05;1.80;;;16.00;74.20;;;;;;4190509;28;20060;-63
2023/01/13 15:11:26;;;;;;;8.10;2.08;;;16.00;74.50;;;;;;4182351;28;20079;-63
2023/01/13 15:14:11;;;;;;;4.88;1.52;;;16.10;74.30;;;;;;4174465;28;20047;-64
2023/01/13 15:16:51;;;;;;;8.95;2.10;;;16.10;73.90;;;;;;4187161;28;20048;-64